Create Tblcommutelog Verified Points Advance Search
| # | Trip ID | Id Commuter | Trip Date | Trip Num | Current Lat | Current Lng | Delta Distance | Current Time | Activity | Activity Confidence | Current Speed | |
|---|---|---|---|---|---|---|---|---|---|---|---|---|
| 72121 | 250415_780856_6461772_0828 | 780856 | (not set) | (not set) | 38.903197856082 | -77.065435723203 | 0.6101 | 2025-04-15 12:30:31.383 | on_bicycle | 100 | 3.4824358275144 | |
| 72122 | 250415_669170_16500693_0652 | 669170 | (not set) | (not set) | 38.902251059676 | -77.004908969441 | 54.8968 | 2025-04-15 12:30:33.185 | in_vehicle | 100 | 2.329074539326 | |
| 72123 | 250415_776287_16511635_0744 | 776287 | (not set) | (not set) | 38.900863338493 | -77.050384968301 | 5.0227 | 2025-04-15 12:30:33.283 | in_vehicle | 100 | -0.44703925898772 | |
| 72124 | 250415_783537_6438355_0822 | 783537 | (not set) | (not set) | 38.93262034424 | -77.072600330738 | 1.0936 | 2025-04-15 12:30:33.478 | in_vehicle | 100 | 0 | |
| 72125 | 250415_700992_16414139_0735 | 700992 | (not set) | (not set) | 39.000106443438 | -77.104556561329 | 18.3863 | 2025-04-15 12:30:34.489 | on_foot | 100 | 0.61691417740306 | |
| 72126 | 250415_782103_16513469_0754 | 782103 | (not set) | (not set) | 38.972199518008 | -76.770239479932 | 7.6514 | 2025-04-15 12:30:35.297 | on_bicycle | 100 | 2.7135283020555 | |
| 72127 | 250415_781975_16497756_0811 | 781975 | (not set) | (not set) | 38.681860800119 | -77.230121341577 | 3.3029 | 2025-04-15 12:30:36.329 | in_vehicle | 100 | 15.847541731115 | |
| 72128 | 250415_755366_16487607_0759 | 755366 | (not set) | (not set) | 38.894158188016 | -77.033616524916 | 5.5014 | 2025-04-15 12:30:37.371 | on_bicycle | 100 | 2.5078902429211 | |
| 72129 | 250415_772581_16464305_0816 | 772581 | (not set) | (not set) | 38.88822313754 | -76.977089374142 | 4.0195 | 2025-04-15 12:30:39.418 | still | 33 | -0.44703925898772 | |
| 72130 | 250415_781042_16483865_0828 | 781042 | (not set) | (not set) | 38.907321402791 | -77.043432382191 | 0.1029 | 2025-04-15 12:30:41.172 | on_foot | 100 | 0.34422022942055 | |
| 72131 | 250415_781727_6461772_0812 | 781727 | (not set) | (not set) | 38.862290827238 | -77.087994777515 | 3.0931 | 2025-04-15 12:30:41.263 | unknown | 100 | 2.7403506575947 | |
| 72132 | 250415_781727_6461772_0812 | 781727 | (not set) | (not set) | 38.862115224379 | -77.088600706975 | 3.0583 | 2025-04-15 12:30:41.273 | unknown | 100 | 0.84043380689692 | |
| 72133 | 250415_782142_16511399_0811 | 782142 | (not set) | (not set) | 38.889861506678 | -77.16399061068 | 2.983 | 2025-04-15 12:30:42.363 | in_vehicle | 100 | 12.154997451876 | |
| 72134 | 250415_731669_16507744_0721 | 731669 | (not set) | (not set) | 38.876158747306 | -77.055952082479 | 33.1512 | 2025-04-15 12:30:43.199 | in_vehicle | 100 | 7.8678909581839 | |
| 72135 | 250415_776287_16511635_0744 | 776287 | (not set) | (not set) | 38.900863501393 | -77.050384726091 | 5.0227 | 2025-04-15 12:30:45.842 | still | 33 | -0.44703925898772 | |
| 72136 | 250415_783320_6461772_0821 | 783320 | (not set) | (not set) | 38.883213161741 | -77.118848596737 | 1.9865 | 2025-04-15 12:30:46.012 | in_vehicle | 100 | -0.44703925898772 | |
| 72137 | 250415_772581_16464305_0816 | 772581 | (not set) | (not set) | 38.887233620402 | -76.977005790818 | 4.0195 | 2025-04-15 12:30:46.434 | in_vehicle | 100 | -0.44703925898772 | |
| 72138 | 250415_782405_16511739_0721 | 782405 | (not set) | (not set) | 39.019108766728 | -76.907444697791 | 14.3186 | 2025-04-15 12:30:47.218 | in_vehicle | 100 | 5.9858556778456 | |
| 72139 | 250415_781975_16497756_0811 | 781975 | (not set) | (not set) | 38.685176355628 | -77.228309086429 | 3.5517 | 2025-04-15 12:30:47.335 | in_vehicle | 100 | 16.187291567945 | |
| 72140 | 250415_783537_6438355_0822 | 783537 | (not set) | (not set) | 38.932168836442 | -77.072695520418 | 1.1251 | 2025-04-15 12:30:47.4 | in_vehicle | 100 | 1.6406340804849 |